Time;durP1;ratioP1;P1;durP2;ratioP2;P2;SDS_P1;SDS_P2;PMS_P1;PMS_P2;Temp;Humidity;BMP_temperature;BMP_pressure;BME280_temperature;BME280_humidity;BME280_pressure;Samples;Min_cycle;Max_cycle;Signal;HPM_P1;HPM_P2
2022/07/16 00:02:13;;;;;;;1.67;1.57;;;27.10;43.40;;;;;;5041735;28;20449;-84
2022/07/16 00:04:41;;;;;;;2.00;1.40;;;27.10;43.50;;;;;;5045632;28;20544;-84
2022/07/16 00:07:09;;;;;;;6.43;1.50;;;27.10;43.50;;;;;;5043367;28;20474;-84
2022/07/16 00:09:37;;;;;;;2.87;1.50;;;27.10;43.50;;;;;;5046306;28;20418;-84
2022/07/16 00:12:05;;;;;;;9.20;1.80;;;27.10;43.50;;;;;;5043656;28;20450;-84
2022/07/16 00:14:33;;;;;;;1.80;1.60;;;27.00;43.40;;;;;;5045945;28;20438;-84
2022/07/16 00:17:01;;;;;;;2.60;1.60;;;27.00;43.40;;;;;;5047161;28;20458;-83
2022/07/16 00:19:29;;;;;;;1.70;1.60;;;27.00;43.40;;;;;;5046015;28;20512;-84
2022/07/16 00:21:57;;;;;;;1.70;1.60;;;27.00;43.40;;;;;;5047920;28;20538;-84
2022/07/16 00:24:25;;;;;;;6.33;1.53;;;27.00;43.40;;;;;;5047160;28;20516;-84
2022/07/16 00:26:54;;;;;;;1.63;1.53;;;27.00;43.50;;;;;;5045059;28;20444;-84
2022/07/16 00:29:22;;;;;;;1.77;1.20;;;27.00;43.40;;;;;;5044965;28;20477;-84
2022/07/16 00:31:50;;;;;;;1.53;1.43;;;27.00;43.40;;;;;;5048898;28;20521;-84
2022/07/16 00:34:18;;;;;;;4.83;2.10;;;27.00;43.40;;;;;;5046658;28;20562;-84
2022/07/16 00:36:48;;;;;;;1.70;1.60;;;27.00;43.40;;;;;;5047390;28;20422;-84
2022/07/16 00:39:17;;;;;;;1.50;1.40;;;26.90;43.30;;;;;;5046021;28;20435;-84
2022/07/16 00:41:46;;;;;;;2.13;1.70;;;26.90;43.30;;;;;;5047882;28;20428;-84
2022/07/16 00:44:17;;;;;;;1.90;1.70;;;26.90;43.20;;;;;;5045886;28;20467;-84
2022/07/16 00:46:45;;;;;;;1.60;1.50;;;26.90;43.20;;;;;;5044956;28;20488;-83
2022/07/16 00:49:13;;;;;;;5.43;1.47;;;26.90;43.20;;;;;;5043589;28;21033;-84
2022/07/16 00:51:42;;;;;;;1.80;1.70;;;26.90;43.20;;;;;;5046099;28;20407;-84
2022/07/16 00:54:12;;;;;;;1.50;1.40;;;26.80;43.20;;;;;;5036157;28;20465;-84
2022/07/16 00:56:40;;;;;;;1.93;1.70;;;26.90;43.30;;;;;;5037117;28;20449;-84
2022/07/16 00:59:08;;;;;;;1.63;1.53;;;26.80;43.20;;;;;;5032338;28;20521;-84
2022/07/16 01:01:36;;;;;;;2.67;1.47;;;26.80;43.30;;;;;;5035639;28;20511;-84
2022/07/16 01:04:05;;;;;;;1.53;1.43;;;26.80;43.40;;;;;;5035585;28;20532;-84
2022/07/16 01:06:33;;;;;;;2.40;1.57;;;26.80;43.30;;;;;;5035800;28;20448;-84
2022/07/16 01:09:01;;;;;;;2.03;1.90;;;26.80;43.20;;;;;;5036192;28;20465;-84
2022/07/16 01:11:31;;;;;;;2.30;1.43;;;26.80;43.20;;;;;;5042549;28;20496;-84
2022/07/16 01:13:59;;;;;;;5.03;1.90;;;26.80;43.20;;;;;;5056054;28;20475;-84
2022/07/16 01:16:27;;;;;;;2.93;1.30;;;26.70;43.10;;;;;;5053959;28;20437;-84
2022/07/16 01:18:55;;;;;;;2.13;1.23;;;26.70;43.20;;;;;;5054723;28;20524;-84
2022/07/16 01:21:23;;;;;;;6.30;1.60;;;26.70;43.30;;;;;;5053831;28;20425;-84
2022/07/16 01:23:52;;;;;;;1.47;1.33;;;26.70;43.40;;;;;;5052781;28;20477;-83
2022/07/16 01:26:20;;;;;;;4.37;1.50;;;26.60;43.40;;;;;;5052847;28;20465;-84
2022/07/16 01:28:49;;;;;;;2.43;1.60;;;26.60;43.50;;;;;;5051161;28;20478;-84
2022/07/16 01:31:17;;;;;;;1.50;1.40;;;26.70;43.50;;;;;;5051626;28;20477;-84
2022/07/16 01:34:24;;;;;;;1.63;1.43;;;26.60;43.60;;;;;;5051741;28;20468;-84
2022/07/16 01:36:33;;;;;;;1.80;1.70;;;26.70;43.70;;;;;;5052070;28;20472;-84
2022/07/16 01:39:02;;;;;;;1.63;1.50;;;26.70;43.80;;;;;;5051453;28;20553;-84
2022/07/16 01:41:31;;;;;;;1.60;1.50;;;26.70;43.90;;;;;;5056866;28;20485;-84
2022/07/16 01:43:59;;;;;;;1.43;1.30;;;26.60;44.00;;;;;;5058678;28;20536;-84
2022/07/16 01:46:27;;;;;;;1.73;1.60;;;26.60;44.20;;;;;;5059613;28;21017;-84
2022/07/16 01:48:55;;;;;;;1.60;1.50;;;26.60;44.40;;;;;;5060087;28;20445;-84
2022/07/16 01:51:23;;;;;;;1.27;1.17;;;26.60;44.50;;;;;;5060329;28;20441;-83
2022/07/16 01:53:51;;;;;;;1.60;1.50;;;26.60;44.60;;;;;;5058241;28;20472;-83
2022/07/16 01:56:20;;;;;;;1.30;1.20;;;26.60;44.60;;;;;;5056893;28;20504;-84
2022/07/16 01:58:48;;;;;;;2.20;1.53;;;26.60;44.70;;;;;;5039072;28;20444;-84
2022/07/16 02:01:16;;;;;;;1.90;1.80;;;26.60;45.00;;;;;;5038043;28;20447;-84
2022/07/16 02:03:44;;;;;;;1.70;1.50;;;26.60;45.00;;;;;;5036303;28;20539;-84
2022/07/16 02:06:12;;;;;;;2.23;1.70;;;26.60;45.20;;;;;;5037305;28;20510;-84
2022/07/16 02:08:40;;;;;;;1.70;1.60;;;26.60;45.40;;;;;;5033438;28;20457;-84
2022/07/16 02:11:08;;;;;;;2.50;1.53;;;26.60;45.50;;;;;;5039358;28;20521;-84
2022/07/16 02:13:37;;;;;;;1.70;1.60;;;26.50;45.50;;;;;;5039734;28;20472;-83
2022/07/16 02:16:06;;;;;;;1.63;1.53;;;26.60;45.60;;;;;;5033988;28;20417;-84
2022/07/16 02:18:34;;;;;;;1.83;1.33;;;26.50;45.60;;;;;;5033756;28;20497;-83
2022/07/16 02:21:02;;;;;;;1.87;1.60;;;26.60;45.80;;;;;;5034066;28;20993;-83
2022/07/16 02:23:30;;;;;;;2.30;1.40;;;26.50;45.80;;;;;;5037793;28;20547;-83
2022/07/16 02:25:58;;;;;;;6.93;1.90;;;26.50;45.80;;;;;;5037646;28;20939;-83
2022/07/16 02:28:26;;;;;;;1.80;1.70;;;26.50;45.90;;;;;;5038199;28;20460;-83
2022/07/16 02:30:55;;;;;;;2.30;1.70;;;26.50;45.80;;;;;;5038977;28;20414;-83
2022/07/16 02:33:23;;;;;;;1.50;1.50;;;26.50;45.90;;;;;;5041320;28;20477;-84
2022/07/16 02:35:51;;;;;;;2.07;1.50;;;26.50;46.00;;;;;;5042513;28;20434;-83
2022/07/16 02:38:19;;;;;;;1.60;1.50;;;26.50;46.10;;;;;;5043659;28;20453;-83
2022/07/16 02:40:47;;;;;;;1.97;1.87;;;26.50;46.10;;;;;;5045879;28;20417;-84
2022/07/16 02:43:15;;;;;;;1.93;1.60;;;26.50;46.20;;;;;;5039895;28;20468;-84
2022/07/16 02:45:43;;;;;;;1.97;1.77;;;26.50;46.20;;;;;;5038883;28;20462;-83
2022/07/16 02:48:12;;;;;;;1.67;1.57;;;26.50;46.30;;;;;;5039324;28;20463;-83
2022/07/16 02:50:40;;;;;;;2.17;1.80;;;26.50;46.40;;;;;;5041882;28;20449;-83
2022/07/16 02:53:08;;;;;;;2.30;1.53;;;26.40;46.30;;;;;;5040449;28;20529;-83
2022/07/16 02:55:36;;;;;;;2.20;1.43;;;26.40;46.40;;;;;;5040609;28;20490;-83
2022/07/16 02:58:04;;;;;;;3.27;1.87;;;26.40;46.40;;;;;;5041258;28;20451;-83
2022/07/16 03:00:33;;;;;;;3.20;1.70;;;26.40;46.50;;;;;;5040282;28;20418;-83
2022/07/16 03:03:01;;;;;;;3.57;1.67;;;26.40;46.60;;;;;;5040744;28;20487;-83
2022/07/16 03:05:30;;;;;;;2.67;1.90;;;26.50;46.70;;;;;;5039958;28;20495;-83
2022/07/16 03:07:58;;;;;;;1.73;1.60;;;26.40;46.60;;;;;;5039930;28;20494;-83
2022/07/16 03:10:26;;;;;;;2.33;2.07;;;26.40;46.80;;;;;;5039279;28;20521;-83
2022/07/16 03:12:54;;;;;;;1.97;1.50;;;26.40;46.80;;;;;;5058555;28;20437;-83
2022/07/16 03:15:22;;;;;;;1.70;1.60;;;26.40;46.80;;;;;;5061922;28;20460;-85
2022/07/16 03:17:50;;;;;;;4.00;1.90;;;26.40;46.80;;;;;;5067168;28;20472;-84
2022/07/16 03:20:18;;;;;;;1.73;1.60;;;26.30;46.80;;;;;;5065692;28;20462;-85
2022/07/16 03:22:47;;;;;;;2.53;1.93;;;26.30;46.90;;;;;;5064101;28;20524;-85
2022/07/16 03:25:15;;;;;;;4.97;2.30;;;26.30;46.90;;;;;;5063206;28;20462;-84
2022/07/16 03:27:43;;;;;;;1.53;1.43;;;26.30;47.00;;;;;;5063920;28;20429;-85
2022/07/16 03:30:12;;;;;;;2.50;1.60;;;26.30;47.00;;;;;;5064973;28;20445;-85
2022/07/16 03:32:40;;;;;;;2.70;1.77;;;26.30;47.10;;;;;;5065003;28;20561;-84
2022/07/16 03:35:09;;;;;;;1.73;1.40;;;26.30;47.10;;;;;;5063659;28;20425;-85
2022/07/16 03:38:57;;;;;;;3.20;1.60;;;26.30;47.10;;;;;;5063992;28;20420;-85
2022/07/16 03:40:27;;;;;;;1.77;1.60;;;26.30;47.20;;;;;;5064976;28;20458;-86
2022/07/16 03:42:55;;;;;;;2.00;1.80;;;26.30;47.10;;;;;;5063718;28;20442;-86
2022/07/16 03:45:23;;;;;;;1.77;1.67;;;26.30;47.20;;;;;;5062850;28;20437;-86
2022/07/16 03:47:51;;;;;;;2.97;1.60;;;26.30;47.20;;;;;;5063875;28;20473;-86
2022/07/16 03:50:19;;;;;;;3.30;1.77;;;26.30;47.20;;;;;;5064337;28;20441;-85
2022/07/16 03:52:47;;;;;;;1.63;1.53;;;26.20;47.10;;;;;;5067400;28;20490;-85
2022/07/16 03:55:15;;;;;;;1.87;1.43;;;26.20;47.20;;;;;;5067030;28;20458;-85
2022/07/16 03:57:45;;;;;;;1.93;1.70;;;26.20;47.20;;;;;;5066514;28;20444;-85
2022/07/16 04:00:14;;;;;;;1.73;1.60;;;26.20;47.20;;;;;;5068075;28;20450;-85
2022/07/16 04:02:42;;;;;;;2.03;1.33;;;26.20;47.20;;;;;;5069535;28;20469;-85
2022/07/16 04:05:10;;;;;;;3.87;1.53;;;26.20;47.30;;;;;;5067850;28;20439;-85
2022/07/16 04:07:38;;;;;;;3.13;1.57;;;26.20;47.20;;;;;;5069561;28;20445;-85
2022/07/16 04:10:07;;;;;;;1.90;1.20;;;26.20;47.20;;;;;;5069026;28;20456;-85
2022/07/16 04:12:35;;;;;;;2.53;1.57;;;26.20;47.60;;;;;;5053401;28;20425;-85
2022/07/16 04:15:06;;;;;;;1.80;1.57;;;26.20;47.20;;;;;;5047413;28;20451;-84
2022/07/16 04:17:33;;;;;;;3.33;1.33;;;26.20;47.20;;;;;;5048292;28;20418;-84
2022/07/16 04:20:02;;;;;;;1.60;1.40;;;26.20;47.20;;;;;;5048704;28;20422;-84
2022/07/16 04:22:29;;;;;;;1.70;1.33;;;26.20;47.20;;;;;;5049197;28;20451;-85
2022/07/16 04:24:57;;;;;;;1.67;1.30;;;26.20;47.20;;;;;;5049367;28;20457;-83
2022/07/16 04:27:25;;;;;;;3.33;1.57;;;26.10;47.10;;;;;;5047787;28;20467;-84
2022/07/16 04:29:53;;;;;;;1.93;1.30;;;26.20;47.10;;;;;;5048131;28;20480;-84
2022/07/16 04:32:23;;;;;;;1.90;1.40;;;26.10;47.10;;;;;;5048501;28;20457;-84
2022/07/16 04:34:51;;;;;;;1.50;1.40;;;26.10;47.10;;;;;;5048167;28;20436;-84
2022/07/16 04:37:19;;;;;;;2.13;1.30;;;26.10;47.10;;;;;;5047951;28;20422;-85
2022/07/16 04:39:47;;;;;;;3.07;1.30;;;26.10;47.10;;;;;;5048764;28;20430;-84
2022/07/16 04:42:15;;;;;;;1.93;1.37;;;26.10;47.20;;;;;;5048922;28;20434;-84
2022/07/16 04:44:43;;;;;;;3.77;1.27;;;26.10;47.20;;;;;;5048264;28;20474;-84
2022/07/16 04:47:11;;;;;;;5.03;1.30;;;26.10;47.20;;;;;;5047613;28;20439;-85
2022/07/16 04:49:40;;;;;;;11.10;1.27;;;26.10;47.30;;;;;;5047908;28;20475;-85
2022/07/16 04:52:08;;;;;;;1.73;1.10;;;26.10;47.30;;;;;;5051166;28;20550;-85
2022/07/16 04:54:36;;;;;;;2.43;1.40;;;26.10;47.30;;;;;;5048139;28;20442;-85
2022/07/16 04:57:04;;;;;;;2.53;1.43;;;26.10;47.20;;;;;;5047827;28;20447;-85
2022/07/16 04:59:32;;;;;;;1.30;1.20;;;26.10;47.30;;;;;;5048536;28;20422;-84
2022/07/16 05:04:44;;;;;;;2.00;1.53;;;26.00;47.20;;;;;;5046213;28;20454;-84
2022/07/16 05:07:12;;;;;;;2.00;1.60;;;26.00;47.10;;;;;;5047766;28;20965;-85
2022/07/16 05:09:40;;;;;;;3.13;1.33;;;26.10;47.20;;;;;;5047360;28;20450;-85
2022/07/16 05:12:08;;;;;;;1.90;1.53;;;26.10;47.20;;;;;;5058910;28;20449;-85
2022/07/16 05:14:36;;;;;;;1.57;1.30;;;26.00;47.10;;;;;;5068490;28;20467;-85
2022/07/16 05:17:04;;;;;;;2.20;1.70;;;26.00;47.20;;;;;;5066788;28;20433;-86
2022/07/16 05:19:32;;;;;;;3.03;1.30;;;26.00;47.20;;;;;;5066733;28;20530;-86
2022/07/16 05:22:02;;;;;;;2.50;1.30;;;26.00;47.20;;;;;;5066328;28;20446;-87
2022/07/16 05:24:30;;;;;;;4.20;1.40;;;26.00;47.20;;;;;;5067382;28;20460;-87
2022/07/16 05:26:58;;;;;;;2.40;1.30;;;26.00;47.20;;;;;;5066023;28;20421;-86
2022/07/16 05:29:26;;;;;;;2.00;1.27;;;26.00;47.20;;;;;;5066926;28;20512;-86
2022/07/16 05:31:54;;;;;;;3.63;1.17;;;26.00;47.10;;;;;;5067516;28;20471;-86
2022/07/16 05:34:22;;;;;;;1.83;1.40;;;26.10;47.10;;;;;;5067686;28;20467;-84
2022/07/16 05:36:50;;;;;;;2.87;1.80;;;26.10;47.10;;;;;;5066569;28;20409;-84
2022/07/16 05:39:19;;;;;;;3.17;1.67;;;26.10;47.10;;;;;;5067353;28;20443;-84
2022/07/16 05:41:47;;;;;;;1.70;1.60;;;26.10;47.00;;;;;;5067840;28;20445;-84
2022/07/16 05:44:15;;;;;;;2.00;1.57;;;26.10;46.80;;;;;;5068280;28;20477;-84
2022/07/16 05:46:43;;;;;;;3.20;1.20;;;26.20;46.90;;;;;;5067221;28;20465;-84
2022/07/16 05:49:11;;;;;;;2.43;1.50;;;26.10;46.90;;;;;;5068264;28;20473;-84
2022/07/16 05:51:39;;;;;;;1.77;1.30;;;26.10;46.90;;;;;;5067633;28;20490;-83
2022/07/16 05:54:07;;;;;;;1.53;1.13;;;26.10;46.80;;;;;;5068092;28;20470;-83
2022/07/16 05:56:36;;;;;;;4.43;1.60;;;26.10;46.80;;;;;;5068130;28;20424;-83
2022/07/16 05:59:04;;;;;;;6.23;1.60;;;26.10;46.80;;;;;;5069257;28;20440;-84
2022/07/16 06:01:32;;;;;;;2.10;1.67;;;26.10;46.80;;;;;;5069257;28;20416;-84
2022/07/16 06:04:00;;;;;;;2.97;1.60;;;26.10;46.80;;;;;;5068944;28;20462;-84
2022/07/16 06:06:28;;;;;;;3.63;1.60;;;26.10;46.80;;;;;;5068995;28;20421;-84
2022/07/16 06:08:56;;;;;;;5.57;1.83;;;26.10;46.70;;;;;;5071873;28;20412;-84
2022/07/16 06:11:24;;;;;;;2.50;1.40;;;26.20;46.70;;;;;;5073186;28;20470;-84
2022/07/16 06:13:53;;;;;;;2.10;1.43;;;26.20;46.60;;;;;;5074104;28;20996;-84
2022/07/16 06:16:22;;;;;;;3.90;1.30;;;26.20;46.40;;;;;;5072194;28;20409;-83
2022/07/16 06:18:51;;;;;;;2.30;1.30;;;26.20;46.40;;;;;;5072829;28;20433;-84
2022/07/16 06:21:19;;;;;;;2.30;1.60;;;26.30;46.40;;;;;;5072768;28;20430;-83
2022/07/16 06:23:47;;;;;;;3.37;1.20;;;26.30;46.80;;;;;;5072942;28;20462;-84
2022/07/16 06:26:15;;;;;;;3.23;1.70;;;26.30;46.20;;;;;;5073202;28;20470;-83
2022/07/16 06:28:43;;;;;;;1.77;1.37;;;26.30;46.20;;;;;;5073899;28;20425;-83
2022/07/16 06:31:12;;;;;;;3.73;1.63;;;26.20;46.20;;;;;;5073789;28;20486;-83
2022/07/16 06:33:40;;;;;;;6.13;1.67;;;26.20;46.20;;;;;;5074699;28;20492;-84
2022/07/16 06:36:08;;;;;;;4.70;1.87;;;26.20;46.20;;;;;;5072493;28;20469;-83
2022/07/16 06:38:36;;;;;;;5.30;1.73;;;26.20;46.10;;;;;;5074037;28;20417;-84
2022/07/16 06:41:04;;;;;;;3.77;1.60;;;26.20;46.10;;;;;;5073609;28;20413;-84
2022/07/16 06:43:32;;;;;;;3.90;1.40;;;26.20;46.00;;;;;;5073427;28;20482;-84
2022/07/16 06:46:00;;;;;;;1.80;1.60;;;26.20;45.80;;;;;;5072568;28;20444;-84
2022/07/16 06:48:30;;;;;;;4.10;1.70;;;26.20;45.70;;;;;;5073916;28;20397;-84
2022/07/16 06:50:58;;;;;;;2.60;1.73;;;26.20;45.60;;;;;;5074193;28;20454;-84
2022/07/16 06:53:26;;;;;;;5.27;1.60;;;26.20;46.00;;;;;;5073533;28;20454;-84
2022/07/16 06:55:54;;;;;;;3.80;1.80;;;26.20;45.00;;;;;;5071676;28;20430;-83
2022/07/16 06:58:22;;;;;;;6.03;1.90;;;26.20;44.90;;;;;;5073632;28;20453;-83
2022/07/16 07:00:50;;;;;;;5.50;1.70;;;26.20;44.40;;;;;;5073728;28;20430;-83
2022/07/16 07:03:18;;;;;;;5.23;1.50;;;26.30;44.30;;;;;;5073015;28;20436;-84
2022/07/16 07:05:47;;;;;;;4.60;1.57;;;26.30;44.10;;;;;;5071791;28;20413;-84
2022/07/16 07:08:15;;;;;;;3.00;1.27;;;26.30;43.60;;;;;;5073037;28;20421;-83
2022/07/16 07:10:44;;;;;;;7.23;1.47;;;26.30;43.00;;;;;;5072753;28;20443;-83
2022/07/16 07:13:12;;;;;;;2.87;1.37;;;26.30;42.50;;;;;;5052637;28;20526;-83
2022/07/16 07:15:40;;;;;;;4.20;1.60;;;26.20;42.20;;;;;;5051842;28;20422;-83
2022/07/16 07:18:08;;;;;;;2.73;1.17;;;26.20;41.90;;;;;;5052802;28;20448;-83
2022/07/16 07:20:36;;;;;;;2.80;1.20;;;26.30;41.90;;;;;;5051067;28;20455;-83
2022/07/16 07:23:05;;;;;;;3.60;1.50;;;26.30;41.60;;;;;;5051366;28;20442;-84
2022/07/16 07:25:33;;;;;;;6.07;1.37;;;26.40;41.30;;;;;;5052143;28;20429;-84
2022/07/16 07:28:09;;;;;;;5.83;1.20;;;26.50;41.10;;;;;;5052980;28;20455;-84
2022/07/16 07:30:37;;;;;;;3.90;1.37;;;26.50;40.80;;;;;;5051397;28;20427;-84
2022/07/16 07:33:05;;;;;;;5.43;1.40;;;26.60;40.50;;;;;;5051674;28;20463;-84
2022/07/16 07:35:33;;;;;;;4.20;1.60;;;26.60;40.50;;;;;;5051060;28;20511;-83
2022/07/16 07:38:01;;;;;;;6.37;1.50;;;26.60;40.40;;;;;;5049452;28;20429;-84
2022/07/16 07:40:31;;;;;;;5.20;1.23;;;26.60;40.00;;;;;;5051889;28;20455;-84
2022/07/16 07:42:59;;;;;;;4.57;1.27;;;26.70;39.70;;;;;;5051024;28;20438;-84
2022/07/16 07:45:27;;;;;;;3.50;1.10;;;26.70;39.00;;;;;;5054422;28;20424;-84
2022/07/16 07:47:55;;;;;;;1.60;0.97;;;26.70;38.50;;;;;;5079720;28;20437;-84
2022/07/16 07:50:23;;;;;;;2.93;1.60;;;26.80;38.10;;;;;;5083016;28;20461;-84
2022/07/16 07:52:52;;;;;;;7.53;1.60;;;26.80;37.60;;;;;;5089138;28;20455;-86
2022/07/16 07:55:20;;;;;;;3.80;1.30;;;26.90;37.40;;;;;;5088881;28;20420;-85
2022/07/16 07:57:55;;;;;;;1.53;1.07;;;26.90;37.10;;;;;;5089168;28;20452;-85
2022/07/16 08:00:23;;;;;;;4.40;1.40;;;27.00;37.00;;;;;;5090011;28;20499;-85
2022/07/16 08:02:51;;;;;;;2.43;1.20;;;26.90;36.80;;;;;;5089445;28;20458;-85
2022/07/16 08:05:19;;;;;;;3.50;1.60;;;26.90;36.90;;;;;;5084795;28;20440;-85
2022/07/16 08:07:47;;;;;;;2.83;1.13;;;27.00;37.20;;;;;;5087730;28;20404;-84
2022/07/16 08:10:15;;;;;;;5.47;1.20;;;27.00;37.20;;;;;;5079930;28;20435;-83
2022/07/16 08:12:43;;;;;;;3.80;1.43;;;27.00;37.40;;;;;;5064493;28;20474;-83
2022/07/16 08:15:13;;;;;;;3.83;1.30;;;27.00;37.50;;;;;;5057720;28;20456;-83
2022/07/16 08:17:41;;;;;;;7.87;1.60;;;27.00;37.30;;;;;;5058764;28;20450;-83
2022/07/16 08:20:10;;;;;;;3.63;1.50;;;27.10;37.30;;;;;;5061821;28;20413;-83
2022/07/16 08:22:38;;;;;;;3.40;1.27;;;27.10;36.90;;;;;;5062439;28;20536;-84
2022/07/16 08:27:52;;;;;;;3.00;1.30;;;27.10;36.50;;;;;;5058334;28;20458;-85
2022/07/16 08:30:21;;;;;;;3.37;1.30;;;27.10;36.30;;;;;;5066042;28;20447;-83
2022/07/16 08:32:49;;;;;;;7.23;1.50;;;27.10;36.30;;;;;;5061894;28;20480;-86
2022/07/16 08:35:17;;;;;;;2.33;1.30;;;27.10;35.80;;;;;;5056082;28;20478;-85
2022/07/16 08:37:46;;;;;;;3.60;1.00;;;27.20;36.00;;;;;;5057809;28;20447;-83
2022/07/16 08:40:15;;;;;;;3.63;1.37;;;27.30;36.20;;;;;;5057923;28;20456;-82
2022/07/16 08:42:43;;;;;;;4.50;1.30;;;27.40;36.00;;;;;;5058456;28;20489;-83
2022/07/16 08:45:12;;;;;;;5.17;1.27;;;27.40;35.80;;;;;;5056280;28;20414;-80
2022/07/16 08:47:41;;;;;;;7.40;1.47;;;27.50;35.90;;;;;;5051758;28;20414;-79
2022/07/16 08:50:11;;;;;;;3.53;1.30;;;27.60;35.80;;;;;;5060140;28;20477;-78
2022/07/16 08:52:40;;;;;;;3.47;1.50;;;27.60;35.80;;;;;;5056823;28;20453;-79
2022/07/16 08:55:08;;;;;;;6.90;1.30;;;27.60;35.50;;;;;;5056046;28;20457;-79
2022/07/16 08:57:38;;;;;;;7.87;1.27;;;27.80;35.30;;;;;;5055932;28;20413;-79
2022/07/16 09:00:08;;;;;;;2.50;1.23;;;27.80;34.50;;;;;;5055859;28;20454;-79
2022/07/16 09:02:36;;;;;;;1.30;1.00;;;27.90;34.20;;;;;;5056074;28;20413;-80
2022/07/16 09:05:06;;;;;;;3.60;1.20;;;28.00;33.90;;;;;;5054893;28;20421;-79
2022/07/16 09:07:34;;;;;;;3.67;1.37;;;28.10;33.50;;;;;;5056554;28;20970;-80
2022/07/16 09:10:02;;;;;;;3.70;1.13;;;28.20;33.30;;;;;;5056238;28;20478;-79
2022/07/16 09:12:38;;;;;;;6.87;1.10;;;28.20;33.40;;;;;;5055784;28;20502;-79
2022/07/16 09:15:29;;;;;;;8.63;1.10;;;28.30;33.40;;;;;;5055162;28;20421;-79
2022/07/16 09:18:16;;;;;;;1.63;1.00;;;28.30;32.80;;;;;;5054910;28;20447;-78
2022/07/16 09:20:47;;;;;;;1.70;0.90;;;28.40;32.30;;;;;;5055357;28;20450;-79
2022/07/16 09:23:18;;;;;;;6.83;1.07;;;28.40;31.90;;;;;;5055350;28;20600;-80
2022/07/16 09:25:49;;;;;;;1.90;0.90;;;28.40;31.60;;;;;;5056954;28;20443;-79
2022/07/16 09:28:17;;;;;;;3.43;1.20;;;28.50;31.90;;;;;;5055338;28;20467;-79
2022/07/16 09:30:45;;;;;;;4.60;1.00;;;28.40;31.60;;;;;;5055165;28;20442;-80
2022/07/16 09:33:16;;;;;;;3.13;1.10;;;28.40;31.70;;;;;;5056815;28;20445;-80
2022/07/16 09:35:45;;;;;;;3.23;1.33;;;28.30;32.00;;;;;;5055373;28;20464;-79
2022/07/16 09:38:13;;;;;;;3.47;1.37;;;28.20;32.10;;;;;;5055667;28;20533;-79
2022/07/16 09:40:43;;;;;;;19.43;1.90;;;28.20;32.40;;;;;;5054999;28;20447;-80
2022/07/16 09:43:22;;;;;;;6.53;1.40;;;28.20;32.70;;;;;;5056011;28;20467;-79
2022/07/16 09:46:03;;;;;;;10.03;1.70;;;28.30;33.00;;;;;;5057224;28;20447;-79
2022/07/16 09:48:32;;;;;;;3.67;1.13;;;28.40;32.90;;;;;;5064791;28;20513;-79
2022/07/16 09:51:14;;;;;;;2.97;0.90;;;28.50;32.60;;;;;;5064752;28;20509;-79
2022/07/16 09:53:43;;;;;;;3.73;0.93;;;28.50;32.60;;;;;;5058818;28;20452;-80
2022/07/16 09:56:13;;;;;;;2.67;1.10;;;28.60;32.40;;;;;;5055638;28;20439;-80
2022/07/16 09:58:41;;;;;;;4.20;1.07;;;28.70;32.50;;;;;;5055507;28;20453;-80
2022/07/16 10:01:09;;;;;;;2.93;0.93;;;28.70;32.10;;;;;;5055812;28;20446;-80
2022/07/16 10:03:39;;;;;;;3.40;1.17;;;28.70;32.00;;;;;;5055563;28;20468;-80
2022/07/16 10:06:09;;;;;;;1.70;1.13;;;28.80;32.10;;;;;;5055247;28;20476;-79
2022/07/16 10:08:39;;;;;;;1.43;0.80;;;28.80;31.60;;;;;;5057004;28;20496;-80
2022/07/16 10:11:07;;;;;;;1.13;0.80;;;28.80;31.70;;;;;;5056180;28;20485;-80
2022/07/16 10:13:35;;;;;;;1.67;1.30;;;28.90;31.90;;;;;;5054845;28;20538;-80
2022/07/16 10:16:03;;;;;;;4.20;1.10;;;28.80;31.90;;;;;;5054625;28;20510;-80
2022/07/16 10:18:33;;;;;;;1.50;0.80;;;28.80;32.10;;;;;;5054847;28;20480;-80
2022/07/16 10:21:02;;;;;;;1.47;1.00;;;28.70;32.40;;;;;;5055153;28;20465;-80
2022/07/16 10:23:32;;;;;;;1.10;0.90;;;28.60;32.50;;;;;;5055288;28;20450;-80
2022/07/16 10:26:00;;;;;;;1.57;1.23;;;28.50;32.70;;;;;;5054730;28;20406;-80
2022/07/16 10:28:44;;;;;;;2.63;0.90;;;28.50;32.90;;;;;;5054931;28;20554;-80
2022/07/16 10:31:31;;;;;;;6.17;1.50;;;28.50;33.30;;;;;;5055819;28;20420;-80
2022/07/16 10:34:38;;;;;;;2.80;1.17;;;28.50;33.40;;;;;;5054676;28;20478;-81
2022/07/16 10:37:08;;;;;;;4.33;1.13;;;28.40;33.70;;;;;;5055967;28;20396;-81
2022/07/16 10:39:57;;;;;;;3.20;1.10;;;28.30;34.10;;;;;;5055617;28;20496;-80
2022/07/16 10:42:25;;;;;;;1.80;1.00;;;28.40;34.60;;;;;;5055770;28;20450;-81
2022/07/16 10:44:53;;;;;;;2.30;0.93;;;28.60;34.30;;;;;;5055777;28;20512;-80
2022/07/16 10:47:21;;;;;;;5.07;1.17;;;28.70;34.20;;;;;;5055585;28;20423;-80
2022/07/16 10:49:48;;;;;;;4.40;1.00;;;28.90;34.40;;;;;;5055041;28;20453;-80
2022/07/16 10:52:18;;;;;;;3.37;1.17;;;29.20;34.30;;;;;;5054969;28;20458;-80
2022/07/16 10:55:02;;;;;;;2.40;1.27;;;29.30;33.50;;;;;;5058882;28;20493;-80
2022/07/16 10:57:37;;;;;;;1.80;0.80;;;29.30;33.70;;;;;;5058743;28;20533;-81
2022/07/16 11:00:06;;;;;;;2.10;1.20;;;29.30;33.90;;;;;;5059688;28;20452;-80
2022/07/16 11:02:37;;;;;;;3.47;1.10;;;29.20;34.00;;;;;;5058810;28;20438;-81
2022/07/16 11:05:26;;;;;;;3.63;1.20;;;29.20;34.30;;;;;;5059883;28;20413;-80
2022/07/16 11:07:55;;;;;;;2.20;0.80;;;29.30;35.00;;;;;;5058917;28;20448;-81
2022/07/16 11:10:34;;;;;;;2.73;1.13;;;29.50;34.40;;;;;;5059175;28;20460;-81
2022/07/16 11:13:02;;;;;;;2.37;1.13;;;29.50;34.10;;;;;;5058669;28;20504;-81
2022/07/16 11:15:30;;;;;;;4.57;1.57;;;29.40;34.30;;;;;;5058096;28;20470;-81
2022/07/16 11:17:59;;;;;;;3.17;0.93;;;29.30;34.70;;;;;;5058227;28;20442;-80
2022/07/16 11:20:35;;;;;;;1.67;1.23;;;29.30;35.00;;;;;;5058680;28;20500;-81
2022/07/16 11:23:06;;;;;;;1.30;1.00;;;29.50;35.20;;;;;;5058822;28;20458;-81
2022/07/16 11:25:36;;;;;;;2.50;0.97;;;29.90;35.20;;;;;;5057896;28;20508;-81
2022/07/16 11:28:04;;;;;;;1.77;1.13;;;30.70;34.60;;;;;;5060421;28;20537;-81
2022/07/16 11:30:32;;;;;;;2.40;1.07;;;31.70;32.00;;;;;;5058274;28;20542;-81
2022/07/16 11:33:00;;;;;;;3.00;0.90;;;31.90;31.40;;;;;;5058848;28;20494;-81
2022/07/16 11:35:28;;;;;;;1.57;0.97;;;31.60;31.80;;;;;;5058041;28;20451;-81
2022/07/16 11:37:57;;;;;;;2.10;0.90;;;31.10;32.40;;;;;;5058083;28;20471;-81
2022/07/16 11:40:36;;;;;;;1.50;0.93;;;30.70;33.00;;;;;;5058042;28;20516;-80
2022/07/16 11:43:04;;;;;;;2.50;1.17;;;30.60;34.30;;;;;;5058996;28;20560;-81
2022/07/16 11:45:36;;;;;;;1.10;0.80;;;32.10;33.60;;;;;;5058202;28;20481;-81
2022/07/16 11:48:12;;;;;;;3.07;0.80;;;33.90;30.70;;;;;;5059059;28;20462;-81
2022/07/16 11:50:40;;;;;;;0.80;0.80;;;35.50;29.20;;;;;;5059233;28;20443;-81
2022/07/16 11:53:09;;;;;;;0.80;0.73;;;36.70;27.70;;;;;;5059044;28;20470;-82
2022/07/16 11:55:43;;;;;;;3.47;0.90;;;36.80;26.50;;;;;;5058651;28;20449;-82
2022/07/16 11:58:11;;;;;;;1.10;1.00;;;37.40;27.10;;;;;;5059556;28;20411;-81
2022/07/16 12:00:43;;;;;;;2.63;0.80;;;38.20;26.70;;;;;;5059489;28;20461;-81
2022/07/16 12:03:11;;;;;;;1.30;0.80;;;38.40;25.20;;;;;;5058226;28;20525;-81
2022/07/16 12:05:39;;;;;;;1.10;1.00;;;37.00;26.00;;;;;;5056160;28;20442;-81
2022/07/16 12:08:08;;;;;;;1.07;0.77;;;35.80;27.30;;;;;;5058567;28;20453;-81
2022/07/16 12:11:05;;;;;;;1.90;1.00;;;36.80;27.40;;;;;;5058611;28;20438;-81
2022/07/16 12:13:33;;;;;;;0.93;0.90;;;37.70;25.80;;;;;;5057602;28;20489;-81
2022/07/16 12:16:01;;;;;;;1.53;1.10;;;36.40;26.50;;;;;;5057054;28;20438;-81
2022/07/16 12:18:29;;;;;;;2.67;1.07;;;35.70;27.80;;;;;;5058532;28;20451;-81
2022/07/16 12:21:24;;;;;;;3.60;1.00;;;34.70;28.20;;;;;;5057596;28;20460;-81
2022/07/16 12:23:52;;;;;;;4.20;1.00;;;33.70;29.40;;;;;;5058465;28;21005;-81
2022/07/16 12:26:29;;;;;;;1.00;0.90;;;34.30;29.20;;;;;;5058176;28;20431;-81
2022/07/16 12:28:58;;;;;;;1.13;1.03;;;33.70;29.40;;;;;;5058595;28;20411;-81
2022/07/16 12:31:27;;;;;;;1.13;1.03;;;34.20;30.00;;;;;;5059822;28;20521;-81
2022/07/16 12:33:55;;;;;;;1.10;0.80;;;34.90;29.00;;;;;;5058817;28;20502;-81
2022/07/16 12:36:29;;;;;;;2.10;1.00;;;34.30;29.20;;;;;;5058233;28;20500;-81
2022/07/16 12:38:58;;;;;;;2.00;1.20;;;33.90;29.30;;;;;;5058501;28;20443;-81
2022/07/16 12:41:29;;;;;;;1.00;1.00;;;33.60;30.20;;;;;;5064865;28;20478;-80
2022/07/16 12:43:58;;;;;;;5.20;1.13;;;33.50;29.80;;;;;;5060345;28;20538;-80
2022/07/16 12:46:27;;;;;;;2.30;1.27;;;33.80;30.40;;;;;;5057449;28;20447;-80
2022/07/16 12:48:56;;;;;;;1.70;1.10;;;34.00;30.00;;;;;;5058868;28;20470;-80
2022/07/16 12:51:27;;;;;;;1.03;0.93;;;34.20;29.60;;;;;;5058859;28;20513;-80
2022/07/16 12:53:55;;;;;;;2.50;1.13;;;34.30;29.60;;;;;;5062933;28;20972;-82
2022/07/16 12:59:10;;;;;;;7.40;0.90;;;33.90;29.60;;;;;;5057209;28;20545;-81
2022/07/16 13:01:38;;;;;;;3.03;1.37;;;33.30;30.10;;;;;;5055983;28;20488;-80
2022/07/16 13:04:06;;;;;;;2.10;1.10;;;32.90;31.10;;;;;;5056254;28;20550;-80
2022/07/16 13:06:34;;;;;;;3.63;1.10;;;32.90;29.80;;;;;;5055165;28;20514;-80